sensor_id;sensor_type;location;lat;lon;timestamp;pressure;altitude;pressure_sealevel;temperature;humidity
36386;BME280;24125;47.482;8.770;2023-02-28T00:01:24;96525.78;;;3.46;66.09
36386;BME280;24125;47.482;8.770;2023-02-28T00:03:59;96533.69;;;3.46;65.70
36386;BME280;24125;47.482;8.770;2023-02-28T00:06:32;96529.97;;;3.47;65.82
36386;BME280;24125;47.482;8.770;2023-02-28T00:09:05;96529.69;;;3.48;65.61
36386;BME280;24125;47.482;8.770;2023-02-28T00:11:37;96526.78;;;3.50;65.57
36386;BME280;24125;47.482;8.770;2023-02-28T00:14:12;96527.59;;;3.50;65.70
36386;BME280;24125;47.482;8.770;2023-02-28T00:16:45;96519.94;;;3.49;65.50
36386;BME280;24125;47.482;8.770;2023-02-28T00:19:18;96527.59;;;3.50;65.86
36386;BME280;24125;47.482;8.770;2023-02-28T00:21:51;96521.78;;;3.48;65.98
36386;BME280;24125;47.482;8.770;2023-02-28T00:24:24;96521.50;;;3.50;65.70
36386;BME280;24125;47.482;8.770;2023-02-28T00:26:56;96523.09;;;3.51;65.77
36386;BME280;24125;47.482;8.770;2023-02-28T00:29:31;96518.59;;;3.51;65.70
36386;BME280;24125;47.482;8.770;2023-02-28T00:32:04;96528.09;;;3.52;66.02
36386;BME280;24125;47.482;8.770;2023-02-28T00:34:38;96527.06;;;3.53;65.83
36386;BME280;24125;47.482;8.770;2023-02-28T00:37:11;96522.56;;;3.54;65.58
36386;BME280;24125;47.482;8.770;2023-02-28T00:39:45;96528.63;;;3.54;65.76
36386;BME280;24125;47.482;8.770;2023-02-28T00:42:18;96520.41;;;3.56;65.87
36386;BME280;24125;47.482;8.770;2023-02-28T00:44:52;96527.28;;;3.57;65.98
36386;BME280;24125;47.482;8.770;2023-02-28T00:47:25;96520.41;;;3.56;65.61
36386;BME280;24125;47.482;8.770;2023-02-28T00:49:59;96524.38;;;3.58;65.95
36386;BME280;24125;47.482;8.770;2023-02-28T00:52:32;96513.81;;;3.58;65.86
36386;BME280;24125;47.482;8.770;2023-02-28T00:55:05;96510.91;;;3.60;65.75
36386;BME280;24125;47.482;8.770;2023-02-28T00:57:38;96505.63;;;3.60;65.75
36386;BME280;24125;47.482;8.770;2023-02-28T01:00:14;96514.56;;;3.64;65.51
36386;BME280;24125;47.482;8.770;2023-02-28T01:02:47;96511.94;;;3.64;66.28
36386;BME280;24125;47.482;8.770;2023-02-28T01:05:20;96516.66;;;3.67;65.68
36386;BME280;24125;47.482;8.770;2023-02-28T01:07:53;96519.59;;;3.65;65.35
36386;BME280;24125;47.482;8.770;2023-02-28T01:10:27;96516.66;;;3.67;65.42
36386;BME280;24125;47.482;8.770;2023-02-28T01:13:02;96510.59;;;3.66;65.38
36386;BME280;24125;47.482;8.770;2023-02-28T01:15:48;96515.63;;;3.68;65.29
36386;BME280;24125;47.482;8.770;2023-02-28T01:18:22;96520.38;;;3.66;65.86
36386;BME280;24125;47.482;8.770;2023-02-28T01:20:56;96514.81;;;3.67;65.80
36386;BME280;24125;47.482;8.770;2023-02-28T01:23:29;96517.47;;;3.67;65.74
36386;BME280;24125;47.482;8.770;2023-02-28T01:26:04;96508.47;;;3.68;65.36
36386;BME280;24125;47.482;8.770;2023-02-28T01:28:37;96517.19;;;3.69;65.85
36386;BME280;24125;47.482;8.770;2023-02-28T01:31:12;96510.06;;;3.69;65.55
36386;BME280;24125;47.482;8.770;2023-02-28T01:33:45;96516.94;;;3.70;65.88
36386;BME280;24125;47.482;8.770;2023-02-28T01:36:20;96520.63;;;3.69;65.67
36386;BME280;24125;47.482;8.770;2023-02-28T01:38:54;96516.94;;;3.70;65.49
36386;BME280;24125;47.482;8.770;2023-02-28T01:41:29;96525.34;;;3.72;65.57
36386;BME280;24125;47.482;8.770;2023-02-28T01:44:05;96523.50;;;3.73;65.63
36386;BME280;24125;47.482;8.770;2023-02-28T01:46:39;96521.09;;;3.76;65.68
36386;BME280;24125;47.482;8.770;2023-02-28T01:49:15;96517.41;;;3.77;65.74
36386;BME280;24125;47.482;8.770;2023-02-28T01:51:50;96514.78;;;3.77;65.72
36386;BME280;24125;47.482;8.770;2023-02-28T01:54:30;96512.34;;;3.81;65.31
36386;BME280;24125;47.482;8.770;2023-02-28T01:57:06;96513.44;;;3.80;65.40
36386;BME280;24125;47.482;8.770;2023-02-28T01:59:44;96513.72;;;3.78;65.05
36386;BME280;24125;47.482;8.770;2023-02-28T02:02:22;96515.28;;;3.79;65.34
36386;BME280;24125;47.482;8.770;2023-02-28T02:04:59;96511.84;;;3.79;65.26
36386;BME280;24125;47.482;8.770;2023-02-28T02:07:35;96520.06;;;3.77;65.23
36386;BME280;24125;47.482;8.770;2023-02-28T02:10:12;96519.78;;;3.79;65.25
36386;BME280;24125;47.482;8.770;2023-02-28T02:13:00;96510.00;;;3.79;65.41
36386;BME280;24125;47.482;8.770;2023-02-28T02:15:41;96506.84;;;3.77;65.26
36386;BME280;24125;47.482;8.770;2023-02-28T02:18:29;96505.53;;;3.80;65.10
36386;BME280;24125;47.482;8.770;2023-02-28T02:21:18;96505.53;;;3.80;64.77
36386;BME280;24125;47.482;8.770;2023-02-28T02:27:17;96507.06;;;3.81;65.13
36386;BME280;24125;47.482;8.770;2023-02-28T02:30:22;96502.09;;;3.79;65.18
36386;BME280;24125;47.482;8.770;2023-02-28T02:36:13;96496.28;;;3.77;64.98
36386;BME280;24125;47.482;8.770;2023-02-28T02:38:50;96490.75;;;3.74;65.35
36386;BME280;24125;47.482;8.770;2023-02-28T02:41:34;96490.22;;;3.72;65.21
36386;BME280;24125;47.482;8.770;2023-02-28T02:44:13;96493.16;;;3.70;65.42
36386;BME280;24125;47.482;8.770;2023-02-28T02:46:53;96492.63;;;3.68;65.63
36386;BME280;24125;47.482;8.770;2023-02-28T02:49:30;96492.63;;;3.68;65.65
36386;BME280;24125;47.482;8.770;2023-02-28T02:52:08;96497.41;;;3.66;65.13
36386;BME280;24125;47.482;8.770;2023-02-28T02:54:45;96493.19;;;3.65;65.50
36386;BME280;24125;47.482;8.770;2023-02-28T02:57:23;96490.25;;;3.67;65.67
36386;BME280;24125;47.482;8.770;2023-02-28T02:59:58;96491.31;;;3.66;65.60
36386;BME280;24125;47.482;8.770;2023-02-28T03:02:34;96488.94;;;3.64;65.51
36386;BME280;24125;47.482;8.770;2023-02-28T03:05:17;96480.75;;;3.66;65.27
36386;BME280;24125;47.482;8.770;2023-02-28T03:07:53;96484.19;;;3.66;65.63
36386;BME280;24125;47.482;8.770;2023-02-28T03:10:31;96491.06;;;3.67;65.17
36386;BME280;24125;47.482;8.770;2023-02-28T03:13:24;96490.25;;;3.67;65.03
36386;BME280;24125;47.482;8.770;2023-02-28T03:16:22;96482.34;;;3.67;65.54
36386;BME280;24125;47.482;8.770;2023-02-28T03:19:04;96484.47;;;3.65;65.19
36386;BME280;24125;47.482;8.770;2023-02-28T03:21:46;96484.47;;;3.65;65.07
36386;BME280;24125;47.482;8.770;2023-02-28T03:24:28;96480.25;;;3.64;64.81
36386;BME280;24125;47.482;8.770;2023-02-28T03:27:07;96482.38;;;3.62;65.07
36386;BME280;24125;47.482;8.770;2023-02-28T03:29:46;96482.66;;;3.60;64.90
36386;BME280;24125;47.482;8.770;2023-02-28T03:32:24;96487.41;;;3.58;64.47
36386;BME280;24125;47.482;8.770;2023-02-28T03:35:03;96489.25;;;3.58;64.87
36386;BME280;24125;47.482;8.770;2023-02-28T03:37:42;96483.75;;;3.54;64.62
36386;BME280;24125;47.482;8.770;2023-02-28T03:40:21;96495.06;;;3.55;65.11
36386;BME280;24125;47.482;8.770;2023-02-28T03:42:59;96493.78;;;3.52;65.04
36386;BME280;24125;47.482;8.770;2023-02-28T03:45:35;96489.84;;;3.50;65.08
36386;BME280;24125;47.482;8.770;2023-02-28T03:48:12;96489.84;;;3.50;65.16
36386;BME280;24125;47.482;8.770;2023-02-28T03:50:49;96493.53;;;3.49;65.13
36386;BME280;24125;47.482;8.770;2023-02-28T03:53:28;96493.53;;;3.49;65.08
36386;BME280;24125;47.482;8.770;2023-02-28T03:56:08;96493.78;;;3.47;65.05
36386;BME280;24125;47.482;8.770;2023-02-28T03:58:48;96504.34;;;3.47;64.90
36386;BME280;24125;47.482;8.770;2023-02-28T04:01:26;96501.22;;;3.45;65.52
36386;BME280;24125;47.482;8.770;2023-02-28T04:04:02;96495.69;;;3.41;64.39
36386;BME280;24125;47.482;8.770;2023-02-28T04:06:36;96487.25;;;3.39;64.95
36386;BME280;24125;47.482;8.770;2023-02-28T04:09:11;96497.28;;;3.37;65.01
36386;BME280;24125;47.482;8.770;2023-02-28T04:11:49;96498.34;;;3.36;65.25
36386;BME280;24125;47.482;8.770;2023-02-28T04:14:24;96490.19;;;3.33;65.29
36386;BME280;24125;47.482;8.770;2023-02-28T04:16:57;96498.38;;;3.31;64.87
36386;BME280;24125;47.482;8.770;2023-02-28T04:19:30;96497.84;;;3.29;65.02
36386;BME280;24125;47.482;8.770;2023-02-28T04:22:03;96506.06;;;3.28;64.59
36386;BME280;24125;47.482;8.770;2023-02-28T04:24:36;96508.16;;;3.26;64.86
36386;BME280;24125;47.482;8.770;2023-02-28T04:27:14;96513.44;;;3.26;64.92
36386;BME280;24125;47.482;8.770;2023-02-28T04:29:47;96511.84;;;3.25;65.11
36386;BME280;24125;47.482;8.770;2023-02-28T04:32:20;96520.31;;;3.22;64.88
36386;BME280;24125;47.482;8.770;2023-02-28T04:34:53;96517.94;;;3.20;65.30
36386;BME280;24125;47.482;8.770;2023-02-28T04:37:27;96518.72;;;3.21;65.36
36386;BME280;24125;47.482;8.770;2023-02-28T04:40:00;96516.38;;;3.19;65.57
36386;BME280;24125;47.482;8.770;2023-02-28T04:42:35;96520.31;;;3.22;65.60
36386;BME280;24125;47.482;8.770;2023-02-28T04:45:09;96510.53;;;3.22;65.77
36386;BME280;24125;47.482;8.770;2023-02-28T04:47:42;96516.34;;;3.24;65.64
36386;BME280;24125;47.482;8.770;2023-02-28T04:50:15;96514.50;;;3.25;65.84
36386;BME280;24125;47.482;8.770;2023-02-28T04:52:48;96518.72;;;3.26;65.76
36386;BME280;24125;47.482;8.770;2023-02-28T04:55:21;96519.50;;;3.26;65.75
36386;BME280;24125;47.482;8.770;2023-02-28T04:57:56;96516.59;;;3.28;65.82
36386;BME280;24125;47.482;8.770;2023-02-28T05:00:29;96514.47;;;3.30;65.68
36386;BME280;24125;47.482;8.770;2023-02-28T05:03:02;96522.13;;;3.31;65.43
36386;BME280;24125;47.482;8.770;2023-02-28T05:05:35;96521.84;;;3.33;65.51
36386;BME280;24125;47.482;8.770;2023-02-28T05:08:08;96523.97;;;3.36;65.41
36386;BME280;24125;47.482;8.770;2023-02-28T05:10:42;96526.31;;;3.37;65.77
36386;BME280;24125;47.482;8.770;2023-02-28T05:13:16;96528.41;;;3.40;65.81
36386;BME280;24125;47.482;8.770;2023-02-28T05:15:49;96530.25;;;3.40;65.62
36386;BME280;24125;47.482;8.770;2023-02-28T05:18:22;96535.00;;;3.43;65.60
36386;BME280;24125;47.482;8.770;2023-02-28T05:20:55;96538.19;;;3.45;65.36
36386;BME280;24125;47.482;8.770;2023-02-28T05:23:29;96538.66;;;3.47;66.02
36386;BME280;24125;47.482;8.770;2023-02-28T05:26:02;96540.00;;;3.50;65.81
36386;BME280;24125;47.482;8.770;2023-02-28T05:28:36;96542.88;;;3.53;65.51
36386;BME280;24125;47.482;8.770;2023-02-28T05:31:10;96541.03;;;3.54;65.38
36386;BME280;24125;47.482;8.770;2023-02-28T05:33:43;96534.69;;;3.55;65.62
36386;BME280;24125;47.482;8.770;2023-02-28T05:36:17;96541.28;;;3.57;65.29
36386;BME280;24125;47.482;8.770;2023-02-28T05:38:50;96541.78;;;3.59;65.49
36386;BME280;24125;47.482;8.770;2023-02-28T05:41:23;96537.31;;;3.60;65.53
36386;BME280;24125;47.482;8.770;2023-02-28T05:43:59;96552.63;;;3.63;65.36
36386;BME280;24125;47.482;8.770;2023-02-28T05:46:34;96545.19;;;3.65;65.21
36386;BME280;24125;47.482;8.770;2023-02-28T05:49:07;96544.41;;;3.64;64.89
36386;BME280;24125;47.482;8.770;2023-02-28T05:51:40;96541.25;;;3.62;65.00
36386;BME280;24125;47.482;8.770;2023-02-28T05:54:14;96546.53;;;3.62;65.27
36386;BME280;24125;47.482;8.770;2023-02-28T05:56:47;96551.81;;;3.62;64.77
36386;BME280;24125;47.482;8.770;2023-02-28T05:59:22;96551.03;;;3.62;64.66
36386;BME280;24125;47.482;8.770;2023-02-28T06:01:54;96560.81;;;3.61;64.70
36386;BME280;24125;47.482;8.770;2023-02-28T06:04:28;96557.09;;;3.57;64.99
36386;BME280;24125;47.482;8.770;2023-02-28T06:07:02;96557.91;;;3.58;64.87
36386;BME280;24125;47.482;8.770;2023-02-28T06:09:36;96561.06;;;3.55;64.35
36386;BME280;24125;47.482;8.770;2023-02-28T06:12:09;96563.44;;;3.56;64.66
36386;BME280;24125;47.482;8.770;2023-02-28T06:14:44;96563.22;;;3.53;64.14
36386;BME280;24125;47.482;8.770;2023-02-28T06:17:17;96556.34;;;3.52;64.93
36386;BME280;24125;47.482;8.770;2023-02-28T06:19:50;96554.78;;;3.51;64.87
36386;BME280;24125;47.482;8.770;2023-02-28T06:22:23;96564.81;;;3.49;65.15
36386;BME280;24125;47.482;8.770;2023-02-28T06:24:56;96571.66;;;3.50;64.93
36386;BME280;24125;47.482;8.770;2023-02-28T06:27:30;96566.41;;;3.45;64.65
36386;BME280;24125;47.482;8.770;2023-02-28T06:30:05;96569.84;;;3.45;64.83
36386;BME280;24125;47.482;8.770;2023-02-28T06:32:38;96575.38;;;3.44;64.90
36386;BME280;24125;47.482;8.770;2023-02-28T06:35:11;96582.53;;;3.43;64.91
36386;BME280;24125;47.482;8.770;2023-02-28T06:37:45;96592.03;;;3.44;64.95
36386;BME280;24125;47.482;8.770;2023-02-28T06:40:18;96593.59;;;3.45;65.32
36386;BME280;24125;47.482;8.770;2023-02-28T06:42:51;96600.72;;;3.45;65.07
36386;BME280;24125;47.482;8.770;2023-02-28T06:45:26;96597.78;;;3.46;64.51
36386;BME280;24125;47.482;8.770;2023-02-28T06:47:59;96606.00;;;3.45;64.99
36386;BME280;24125;47.482;8.770;2023-02-28T06:50:32;96604.94;;;3.46;65.16
36386;BME280;24125;47.482;8.770;2023-02-28T06:53:05;96599.69;;;3.46;64.94
36386;BME280;24125;47.482;8.770;2023-02-28T06:55:38;96599.38;;;3.47;64.80
36386;BME280;24125;47.482;8.770;2023-02-28T06:58:11;96599.38;;;3.47;65.05
36386;BME280;24125;47.482;8.770;2023-02-28T07:00:52;96599.91;;;3.49;64.53
36386;BME280;24125;47.482;8.770;2023-02-28T07:03:25;96609.94;;;3.47;64.70
36386;BME280;24125;47.482;8.770;2023-02-28T07:05:58;96603.06;;;3.46;64.82
36386;BME280;24125;47.482;8.770;2023-02-28T07:08:31;96614.97;;;3.49;65.24
36386;BME280;24125;47.482;8.770;2023-02-28T07:11:04;96614.69;;;3.50;64.52
36386;BME280;24125;47.482;8.770;2023-02-28T07:13:37;96614.16;;;3.48;64.54
36386;BME280;24125;47.482;8.770;2023-02-28T07:16:12;96629.75;;;3.50;64.54
36386;BME280;24125;47.482;8.770;2023-02-28T07:18:47;96631.84;;;3.48;64.23
36386;BME280;24125;47.482;8.770;2023-02-28T07:21:20;96636.88;;;3.49;64.76
36386;BME280;24125;47.482;8.770;2023-02-28T07:23:53;96625.78;;;3.47;63.75
36386;BME280;24125;47.482;8.770;2023-02-28T07:26:26;96626.06;;;3.46;64.53
36386;BME280;24125;47.482;8.770;2023-02-28T07:28:59;96634.00;;;3.46;64.40
36386;BME280;24125;47.482;8.770;2023-02-28T07:31:35;96634.25;;;3.44;64.21
36386;BME280;24125;47.482;8.770;2023-02-28T07:34:08;96626.59;;;3.42;64.58
36386;BME280;24125;47.482;8.770;2023-02-28T07:36:40;96632.66;;;3.43;64.95
36386;BME280;24125;47.482;8.770;2023-02-28T07:39:13;96635.56;;;3.41;64.57
36386;BME280;24125;47.482;8.770;2023-02-28T07:41:47;96642.44;;;3.42;64.69
36386;BME280;24125;47.482;8.770;2023-02-28T07:44:20;96633.47;;;3.44;64.19
36386;BME280;24125;47.482;8.770;2023-02-28T07:46:54;96636.63;;;3.46;64.35
36386;BME280;24125;47.482;8.770;2023-02-28T07:49:27;96636.09;;;3.44;64.79
36386;BME280;24125;47.482;8.770;2023-02-28T07:52:00;96638.47;;;3.45;65.40
36386;BME280;24125;47.482;8.770;2023-02-28T07:54:34;96644.56;;;3.46;64.51
36386;BME280;24125;47.482;8.770;2023-02-28T07:57:07;96638.19;;;3.47;65.10
36386;BME280;24125;47.482;8.770;2023-02-28T07:59:40;96645.59;;;3.45;64.67
36386;BME280;24125;47.482;8.770;2023-02-28T08:02:17;96647.44;;;3.44;63.87
36386;BME280;24125;47.482;8.770;2023-02-28T08:04:51;96641.09;;;3.40;63.78
36386;BME280;24125;47.482;8.770;2023-02-28T08:07:24;96657.75;;;3.40;64.32
36386;BME280;24125;47.482;8.770;2023-02-28T08:09:57;96660.38;;;3.40;64.26
36386;BME280;24125;47.482;8.770;2023-02-28T08:12:30;96653.50;;;3.39;64.57
36386;BME280;24125;47.482;8.770;2023-02-28T08:15:04;96651.94;;;3.44;64.79
36386;BME280;24125;47.482;8.770;2023-02-28T08:17:38;96654.31;;;3.45;64.84
36386;BME280;24125;47.482;8.770;2023-02-28T08:20:11;96659.81;;;3.49;64.68
36386;BME280;24125;47.482;8.770;2023-02-28T08:22:45;96656.66;;;3.52;64.79
36386;BME280;24125;47.482;8.770;2023-02-28T08:25:18;96653.47;;;3.55;65.23
36386;BME280;24125;47.482;8.770;2023-02-28T08:27:51;96654.78;;;3.57;65.52
36386;BME280;24125;47.482;8.770;2023-02-28T08:30:24;96669.84;;;3.62;65.40
36386;BME280;24125;47.482;8.770;2023-02-28T08:32:59;96659.53;;;3.65;65.06
36386;BME280;24125;47.482;8.770;2023-02-28T08:35:35;96650.28;;;3.68;65.22
36386;BME280;24125;47.482;8.770;2023-02-28T08:38:09;96661.09;;;3.71;65.29
36386;BME280;24125;47.482;8.770;2023-02-28T08:40:41;96658.44;;;3.76;65.53
36386;BME280;24125;47.482;8.770;2023-02-28T08:43:15;96664.75;;;3.80;65.13
36386;BME280;24125;47.482;8.770;2023-02-28T08:45:51;96660.25;;;3.86;65.00
36386;BME280;24125;47.482;8.770;2023-02-28T08:48:28;96656.00;;;3.90;65.20
36386;BME280;24125;47.482;8.770;2023-02-28T08:51:02;96663.13;;;3.95;65.00
36386;BME280;24125;47.482;8.770;2023-02-28T08:53:39;96652.53;;;4.00;65.14
36386;BME280;24125;47.482;8.770;2023-02-28T08:56:16;96655.94;;;4.05;65.17
36386;BME280;24125;47.482;8.770;2023-02-28T08:58:50;96644.81;;;4.08;64.97
36386;BME280;24125;47.482;8.770;2023-02-28T09:01:24;96650.59;;;4.15;64.93
36386;BME280;24125;47.482;8.770;2023-02-28T09:04:01;96652.69;;;4.18;64.76
36386;BME280;24125;47.482;8.770;2023-02-28T09:06:34;96657.97;;;4.24;65.13
36386;BME280;24125;47.482;8.770;2023-02-28T09:09:10;96662.16;;;4.30;65.05
36386;BME280;24125;47.482;8.770;2023-02-28T09:11:43;96665.56;;;4.35;65.03
36386;BME280;24125;47.482;8.770;2023-02-28T09:14:16;96673.47;;;4.40;65.11
36386;BME280;24125;47.482;8.770;2023-02-28T09:16:50;96674.50;;;4.44;64.95
36386;BME280;24125;47.482;8.770;2023-02-28T09:19:24;96683.47;;;4.48;64.79
36386;BME280;24125;47.482;8.770;2023-02-28T09:21:58;96686.34;;;4.52;64.63
36386;BME280;24125;47.482;8.770;2023-02-28T09:24:31;96685.00;;;4.54;64.73
36386;BME280;24125;47.482;8.770;2023-02-28T09:27:04;96686.31;;;4.57;64.71
36386;BME280;24125;47.482;8.770;2023-02-28T09:29:38;96684.19;;;4.59;64.48
36386;BME280;24125;47.482;8.770;2023-02-28T09:32:12;96686.28;;;4.62;64.51
36386;BME280;24125;47.482;8.770;2023-02-28T09:34:47;96686.28;;;4.62;63.94
36386;BME280;24125;47.482;8.770;2023-02-28T09:37:20;96686.28;;;4.62;64.44
36386;BME280;24125;47.482;8.770;2023-02-28T09:39:54;96685.22;;;4.63;64.49
36386;BME280;24125;47.482;8.770;2023-02-28T09:42:31;96689.44;;;4.64;64.41
36386;BME280;24125;47.482;8.770;2023-02-28T09:45:11;96687.34;;;4.66;64.38
36386;BME280;24125;47.482;8.770;2023-02-28T09:47:50;96682.84;;;4.67;64.12
36386;BME280;24125;47.482;8.770;2023-02-28T09:50:32;96687.56;;;4.70;63.87
36386;BME280;24125;47.482;8.770;2023-02-28T09:53:19;96690.19;;;4.70;63.56
36386;BME280;24125;47.482;8.770;2023-02-28T09:55:58;96703.94;;;4.72;63.63
36386;BME280;24125;47.482;8.770;2023-02-28T09:58:37;96700.50;;;4.71;63.54
36386;BME280;24125;47.482;8.770;2023-02-28T10:01:20;96705.53;;;4.73;63.83
36386;BME280;24125;47.482;8.770;2023-02-28T10:03:57;96707.38;;;4.72;63.25
36386;BME280;24125;47.482;8.770;2023-02-28T10:06:39;96703.09;;;4.76;63.56
36386;BME280;24125;47.482;8.770;2023-02-28T10:09:18;96702.63;;;4.74;62.92
36386;BME280;24125;47.482;8.770;2023-02-28T10:11:57;96707.06;;;4.79;63.76
36386;BME280;24125;47.482;8.770;2023-02-28T10:14:34;96702.56;;;4.79;63.26
36386;BME280;24125;47.482;8.770;2023-02-28T10:17:11;96704.16;;;4.80;63.62
36386;BME280;24125;47.482;8.770;2023-02-28T10:19:53;96706.25;;;4.83;63.84
36386;BME280;24125;47.482;8.770;2023-02-28T10:22:38;96705.16;;;4.84;63.91
36386;BME280;24125;47.482;8.770;2023-02-28T10:25:20;96716.28;;;4.86;64.46
36386;BME280;24125;47.482;8.770;2023-02-28T10:27:54;96718.66;;;4.88;63.95
36386;BME280;24125;47.482;8.770;2023-02-28T10:30:31;96717.59;;;4.89;64.34
36386;BME280;24125;47.482;8.770;2023-02-28T10:33:04;96719.41;;;4.93;64.07
36386;BME280;24125;47.482;8.770;2023-02-28T10:35:37;96716.47;;;4.95;64.25
36386;BME280;24125;47.482;8.770;2023-02-28T10:38:16;96728.63;;;5.01;64.12
36386;BME280;24125;47.482;8.770;2023-02-28T10:40:50;96730.69;;;5.04;63.95
36386;BME280;24125;47.482;8.770;2023-02-28T10:43:23;96730.16;;;5.07;63.17
36386;BME280;24125;47.482;8.770;2023-02-28T10:46:02;96727.72;;;5.11;63.20
36386;BME280;24125;47.482;8.770;2023-02-28T10:48:38;96729.09;;;5.08;62.89
36386;BME280;24125;47.482;8.770;2023-02-28T10:51:13;96720.63;;;5.06;62.08
36386;BME280;24125;47.482;8.770;2023-02-28T10:53:50;96723.03;;;5.03;61.37
36386;BME280;24125;47.482;8.770;2023-02-28T10:56:33;96727.59;;;4.97;63.26
36386;BME280;24125;47.482;8.770;2023-02-28T10:59:27;96727.06;;;4.95;63.12
36386;BME280;24125;47.482;8.770;2023-02-28T11:02:00;96729.75;;;4.90;62.68
36386;BME280;24125;47.482;8.770;2023-02-28T11:04:36;96730.56;;;4.85;62.48
36386;BME280;24125;47.482;8.770;2023-02-28T11:07:17;96724.00;;;4.83;62.15
36386;BME280;24125;47.482;8.770;2023-02-28T11:09:57;96721.34;;;4.78;62.24
36386;BME280;24125;47.482;8.770;2023-02-28T11:12:34;96719.03;;;4.71;61.08
36386;BME280;24125;47.482;8.770;2023-02-28T11:15:23;96708.75;;;4.65;60.52
36386;BME280;24125;47.482;8.770;2023-02-28T11:17:57;96710.34;;;4.66;62.50
36386;BME280;24125;47.482;8.770;2023-02-28T11:20:32;96719.28;;;4.70;63.49
36386;BME280;24125;47.482;8.770;2023-02-28T11:23:05;96721.41;;;4.73;64.92
36386;BME280;24125;47.482;8.770;2023-02-28T11:25:47;96720.56;;;4.77;63.29
36386;BME280;24125;47.482;8.770;2023-02-28T11:28:23;96721.09;;;4.79;64.54
36386;BME280;24125;47.482;8.770;2023-02-28T11:31:02;96725.84;;;4.82;65.14
36386;BME280;24125;47.482;8.770;2023-02-28T11:33:40;96721.84;;;4.85;63.37
36386;BME280;24125;47.482;8.770;2023-02-28T11:36:14;96717.84;;;4.87;64.67
36386;BME280;24125;47.482;8.770;2023-02-28T11:38:50;96723.66;;;4.89;64.98
36386;BME280;24125;47.482;8.770;2023-02-28T11:41:37;96725.25;;;4.90;65.21
36386;BME280;24125;47.482;8.770;2023-02-28T11:44:18;96717.53;;;4.94;65.01
36386;BME280;24125;47.482;8.770;2023-02-28T11:46:56;96730.22;;;4.97;65.11
36386;BME280;24125;47.482;8.770;2023-02-28T11:49:31;96729.91;;;5.04;66.09
36386;BME280;24125;47.482;8.770;2023-02-28T11:52:10;96723.81;;;5.08;65.40
36386;BME280;24125;47.482;8.770;2023-02-28T11:54:52;96724.03;;;5.12;64.54
36386;BME280;24125;47.482;8.770;2023-02-28T11:57:35;96723.47;;;5.15;65.34
36386;BME280;24125;47.482;8.770;2023-02-28T12:00:15;96724.78;;;5.17;61.13
36386;BME280;24125;47.482;8.770;2023-02-28T12:02:55;96721.88;;;5.19;62.60
36386;BME280;24125;47.482;8.770;2023-02-28T12:05:31;96723.72;;;5.18;63.51
36386;BME280;24125;47.482;8.770;2023-02-28T12:08:10;96721.56;;;5.20;63.94
36386;BME280;24125;47.482;8.770;2023-02-28T12:10:52;96723.16;;;5.21;65.22
36386;BME280;24125;47.482;8.770;2023-02-28T12:13:32;96714.69;;;5.19;61.20
36386;BME280;24125;47.482;8.770;2023-02-28T12:16:15;96732.16;;;5.20;64.68
36386;BME280;24125;47.482;8.770;2023-02-28T12:18:57;96712.84;;;5.20;64.05
36386;BME280;24125;47.482;8.770;2023-02-28T12:21:35;96713.16;;;5.18;64.57
36386;BME280;24125;47.482;8.770;2023-02-28T12:24:25;96716.28;;;5.20;66.13
36386;BME280;24125;47.482;8.770;2023-02-28T12:27:05;96712.84;;;5.20;64.73
36386;BME280;24125;47.482;8.770;2023-02-28T12:29:43;96708.63;;;5.19;64.48
36386;BME280;24125;47.482;8.770;2023-02-28T12:32:18;96708.06;;;5.22;66.08
36386;BME280;24125;47.482;8.770;2023-02-28T12:34:54;96716.00;;;5.27;67.61
36386;BME280;24125;47.482;8.770;2023-02-28T12:37:29;96720.50;;;5.26;65.09
36386;BME280;24125;47.482;8.770;2023-02-28T12:40:05;96717.00;;;5.31;63.92
36386;BME280;24125;47.482;8.770;2023-02-28T12:42:42;96720.16;;;5.33;65.83
36386;BME280;24125;47.482;8.770;2023-02-28T12:45:20;96712.75;;;5.35;66.71
36386;BME280;24125;47.482;8.770;2023-02-28T12:47:55;96706.41;;;5.31;62.70
36386;BME280;24125;47.482;8.770;2023-02-28T12:50:29;96706.13;;;5.32;64.51
36386;BME280;24125;47.482;8.770;2023-02-28T12:53:03;96708.50;;;5.34;63.14
36386;BME280;24125;47.482;8.770;2023-02-28T12:55:40;96710.38;;;5.34;64.17
36386;BME280;24125;47.482;8.770;2023-02-28T12:58:17;96704.22;;;5.38;65.75
36386;BME280;24125;47.482;8.770;2023-02-28T13:01:03;96709.25;;;5.40;63.37
36386;BME280;24125;47.482;8.770;2023-02-28T13:03:44;96713.47;;;5.41;62.68
36386;BME280;24125;47.482;8.770;2023-02-28T13:06:33;96720.88;;;5.44;64.01
36386;BME280;24125;47.482;8.770;2023-02-28T13:09:12;96712.63;;;5.45;64.58
36386;BME280;24125;47.482;8.770;2023-02-28T13:11:47;96707.06;;;5.47;66.84
36386;BME280;24125;47.482;8.770;2023-02-28T13:14:22;96709.94;;;5.50;67.42
36386;BME280;24125;47.482;8.770;2023-02-28T13:16:58;96709.41;;;5.53;67.68
36386;BME280;24125;47.482;8.770;2023-02-28T13:19:32;96712.53;;;5.55;63.99
36386;BME280;24125;47.482;8.770;2023-02-28T13:22:05;96705.09;;;5.57;62.42
36386;BME280;24125;47.482;8.770;2023-02-28T13:24:49;96702.97;;;5.59;63.64
36386;BME280;24125;47.482;8.770;2023-02-28T13:27:33;96708.00;;;5.61;64.45
36386;BME280;24125;47.482;8.770;2023-02-28T13:35:46;96715.06;;;5.71;65.88
36386;BME280;24125;47.482;8.770;2023-02-28T13:38:34;96711.63;;;5.70;63.40
36386;BME280;24125;47.482;8.770;2023-02-28T13:44:01;96711.38;;;5.66;64.95
36386;BME280;24125;47.482;8.770;2023-02-28T13:46:35;96706.34;;;5.65;66.16
36386;BME280;24125;47.482;8.770;2023-02-28T13:49:18;96720.09;;;5.67;66.35
36386;BME280;24125;47.482;8.770;2023-02-28T13:51:52;96716.94;;;5.65;65.32
36386;BME280;24125;47.482;8.770;2023-02-28T13:54:30;96711.13;;;5.63;64.16
36386;BME280;24125;47.482;8.770;2023-02-28T13:57:07;96719.59;;;5.65;66.48
36386;BME280;24125;47.482;8.770;2023-02-28T13:59:46;96711.66;;;5.65;66.95
36386;BME280;24125;47.482;8.770;2023-02-28T14:02:33;96718.81;;;5.64;62.48
36386;BME280;24125;47.482;8.770;2023-02-28T14:05:12;96718.00;;;5.64;66.06
36386;BME280;24125;47.482;8.770;2023-02-28T14:07:52;96715.63;;;5.62;66.64
36386;BME280;24125;47.482;8.770;2023-02-28T14:10:27;96720.94;;;5.62;66.11
36386;BME280;24125;47.482;8.770;2023-02-28T14:13:02;96708.53;;;5.58;66.06